Gunnison, CO

12:09 AM MDT on August 31, 2014 (GMT -0600)
West Ruby Ave Weather | Change Station
CLOSE
Current Station
Personal Weather Station
Location: Gunnison, CO
Elevation: 7713 ft
Nearby Weather Stations

Elev 7713 ft 38.55 °N, 106.93 °W | Updated 1 day ago

Partly Cloudy
Partly Cloudy
49 °F
Feels Like 49 °F
N
2
Wind Variable Wind from North
Gusts 5 mph

Today
High -- | Low -- °F
--% Chance of Precip.
Yesterday
High -- | Low -- °F
Precip. -- in
6:36 AM 7:39 PM
Waxing Crescent, 28% visible
Pressure 30.21 in
Visibility 10.0 miles
Clouds Clear
Dew Point 36 °F
Humidity 59%
Rainfall -999.00 in
Snow Depth Not available.
UV 0 out of 12
Pollen 10.20 out of 12
Air Quality Not available.
Flu Activity Not available.
METAR KGUC 310555Z AUTO 01006KT 10SM CLR 10/04 A3021 RMK AO1 10210 20100 54000

More Conditions Fewer Conditions

Pressure 30.21 in
Visibility 10.0 miles
Clouds Clear
Dew Point 36 °F
Humidity 59%
Rainfall -999.00 in
Snow Depth Not available.
UV 0 out of 12
Pollen 10.20 out of 12
Air Quality Not available.
Flu Activity Not available.
METAR KGUC 310555Z AUTO 01006KT 10SM CLR 10/04 A3021 RMK AO1 10210 20100 54000

More Conditions Fewer Conditions

10-Day Weather Forecast

Almanac

Astronomy

Aug. 31, 2014 Rise Set
Actual Time 6:36 AM MDT 7:39 PM MDT
Civil Twilight 6:08 AM MDT 8:06 PM MDT
Nautical Twilight 5:36 AM MDT 8:38 PM MDT
Astronomical Twilight 5:02 AM MDT 9:12 PM MDT
Moon 12:21 PM MDT 11:00 PM MDT
Length of Visible Light 13h 57m
Length of Day
13h 02m
Tomorrow will be 2m 22s shorter.
Waxing Crescent, 28% of the Moon is Illuminated
Today
Waxing Crescent
Sep 2
First Quarter
Sep 8
Full
Sep 15
Last Quarter
Sep 24
New

Community

WunderPhotos

Upload Photos

1,748,801 photos uploaded!

Nearby

Snow Depth

Station Depth Elevation
Park Cone 0 in 9600 ft
Porphyry Creek 0 in 10760 ft
Schofield Pass 0 in 10700 ft
North Lost Trail 0 in 9200 ft
Independence Pass 189 in 10600 ft

Earthquake Activity

City Distance Mag. Time & Date
No recent earthquake activity has been reported nearby.
Minimum magnitude displayed is 2.5.

Coastal Water Temperatures

Place Temperature
No Stations Reporting

Nearby Weather Stations